sensor_id;sensor_type;location;lat;lon;timestamp;pressure;altitude;pressure_sealevel;temperature;humidity
64967;BME280;51710;38.732;-121.358;2023-01-23T00:01:07;101563.47;;;13.56;40.63
64967;BME280;51710;38.732;-121.358;2023-01-23T00:03:33;101565.63;;;13.52;40.64
64967;BME280;51710;38.732;-121.358;2023-01-23T00:06:02;101570.59;;;13.47;41.17
64967;BME280;51710;38.732;-121.358;2023-01-23T00:08:29;101562.56;;;13.47;40.75
64967;BME280;51710;38.732;-121.358;2023-01-23T00:10:56;101563.88;;;13.43;41.17
64967;BME280;51710;38.732;-121.358;2023-01-23T00:13:22;101570.34;;;13.41;41.38
64967;BME280;51710;38.732;-121.358;2023-01-23T00:15:49;101569.13;;;13.35;41.77
64967;BME280;51710;38.732;-121.358;2023-01-23T00:18:16;101561.59;;;13.31;41.40
64967;BME280;51710;38.732;-121.358;2023-01-23T00:20:42;101562.59;;;13.30;41.04
64967;BME280;51710;38.732;-121.358;2023-01-23T00:23:09;101568.75;;;13.30;41.24
64967;BME280;51710;38.732;-121.358;2023-01-23T00:25:37;101557.53;;;13.27;41.65
64967;BME280;51710;38.732;-121.358;2023-01-23T00:28:04;101552.50;;;13.24;41.50
64967;BME280;51710;38.732;-121.358;2023-01-23T00:30:30;101564.34;;;13.21;41.59
64967;BME280;51710;38.732;-121.358;2023-01-23T00:32:56;101563.66;;;13.19;41.96
64967;BME280;51710;38.732;-121.358;2023-01-23T00:35:23;101556.25;;;13.13;41.87
64967;BME280;51710;38.732;-121.358;2023-01-23T00:37:49;101563.88;;;13.08;41.75
64967;BME280;51710;38.732;-121.358;2023-01-23T00:40:15;101559.81;;;13.04;42.02
64967;BME280;51710;38.732;-121.358;2023-01-23T00:42:42;101561.13;;;13.00;41.75
64967;BME280;51710;38.732;-121.358;2023-01-23T00:45:08;101567.06;;;12.94;42.03
64967;BME280;51710;38.732;-121.358;2023-01-23T00:47:35;101573.03;;;12.88;42.43
64967;BME280;51710;38.732;-121.358;2023-01-23T00:50:01;101562.75;;;12.84;42.19
64967;BME280;51710;38.732;-121.358;2023-01-23T00:52:27;101559.84;;;12.77;41.91
64967;BME280;51710;38.732;-121.358;2023-01-23T00:54:55;101554.44;;;12.69;42.62
64967;BME280;51710;38.732;-121.358;2023-01-23T00:57:21;101555.88;;;12.64;42.01
64967;BME280;51710;38.732;-121.358;2023-01-23T00:59:50;101552.13;;;12.57;41.94
64967;BME280;51710;38.732;-121.358;2023-01-23T01:02:17;101558.91;;;12.51;42.20
64967;BME280;51710;38.732;-121.358;2023-01-23T01:04:43;101547.13;;;12.44;42.64
64967;BME280;51710;38.732;-121.358;2023-01-23T01:07:09;101551.53;;;12.35;43.22
64967;BME280;51710;38.732;-121.358;2023-01-23T01:09:35;101544.94;;;12.30;42.75
64967;BME280;51710;38.732;-121.358;2023-01-23T01:12:02;101540.06;;;12.25;43.14
64967;BME280;51710;38.732;-121.358;2023-01-23T01:14:28;101546.81;;;12.20;43.09
64967;BME280;51710;38.732;-121.358;2023-01-23T01:16:54;101553.75;;;12.13;43.47
64967;BME280;51710;38.732;-121.358;2023-01-23T01:19:21;101556.28;;;12.05;43.67
64967;BME280;51710;38.732;-121.358;2023-01-23T01:21:47;101563.88;;;12.00;43.32
64967;BME280;51710;38.732;-121.358;2023-01-23T01:24:13;101567.84;;;11.96;43.47
64967;BME280;51710;38.732;-121.358;2023-01-23T01:26:40;101559.41;;;11.91;43.59
64967;BME280;51710;38.732;-121.358;2023-01-23T01:29:06;101553.53;;;11.87;43.54
64967;BME280;51710;38.732;-121.358;2023-01-23T01:31:32;101547.63;;;11.84;43.67
64967;BME280;51710;38.732;-121.358;2023-01-23T01:33:59;101555.25;;;11.79;43.88
64967;BME280;51710;38.732;-121.358;2023-01-23T01:36:25;101548.53;;;11.75;44.56
64967;BME280;51710;38.732;-121.358;2023-01-23T01:38:52;101552.47;;;11.71;44.19
64967;BME280;51710;38.732;-121.358;2023-01-23T01:41:18;101557.94;;;11.69;45.00
64967;BME280;51710;38.732;-121.358;2023-01-23T01:43:45;101544.06;;;11.66;44.95
64967;BME280;51710;38.732;-121.358;2023-01-23T01:46:21;101545.28;;;11.62;45.05
64967;BME280;51710;38.732;-121.358;2023-01-23T01:49:08;101553.19;;;11.54;44.82
64967;BME280;51710;38.732;-121.358;2023-01-23T01:52:02;101543.75;;;11.50;45.15
64967;BME280;51710;38.732;-121.358;2023-01-23T01:54:40;101540.97;;;11.42;45.09
64967;BME280;51710;38.732;-121.358;2023-01-23T01:57:13;101551.66;;;11.42;45.92
64967;BME280;51710;38.732;-121.358;2023-01-23T01:59:50;101554.88;;;11.35;45.66
64967;BME280;51710;38.732;-121.358;2023-01-23T02:02:34;101553.47;;;11.31;46.06
64967;BME280;51710;38.732;-121.358;2023-01-23T02:05:08;101556.41;;;11.28;46.20
64967;BME280;51710;38.732;-121.358;2023-01-23T02:10:07;101557.53;;;11.16;46.47
64967;BME280;51710;38.732;-121.358;2023-01-23T02:12:34;101565.13;;;11.11;47.42
64967;BME280;51710;38.732;-121.358;2023-01-23T02:15:03;101573.25;;;11.10;47.18
64967;BME280;51710;38.732;-121.358;2023-01-23T02:17:30;101582.38;;;11.07;47.12
64967;BME280;51710;38.732;-121.358;2023-01-23T02:20:22;101572.28;;;11.01;47.78
64967;BME280;51710;38.732;-121.358;2023-01-23T02:23:15;101569.19;;;10.96;47.70
64967;BME280;51710;38.732;-121.358;2023-01-23T02:28:13;101577.44;;;10.93;47.53
64967;BME280;51710;38.732;-121.358;2023-01-23T02:30:41;101587.53;;;10.90;47.73
64967;BME280;51710;38.732;-121.358;2023-01-23T02:35:47;101580.97;;;10.84;48.03
64967;BME280;51710;38.732;-121.358;2023-01-23T02:38:13;101579.69;;;10.79;48.75
64967;BME280;51710;38.732;-121.358;2023-01-23T02:40:41;101575.47;;;10.76;48.43
64967;BME280;51710;38.732;-121.358;2023-01-23T02:43:13;101584.84;;;10.71;48.82
64967;BME280;51710;38.732;-121.358;2023-01-23T02:45:40;101587.22;;;10.64;48.87
64967;BME280;51710;38.732;-121.358;2023-01-23T02:48:07;101588.44;;;10.60;49.24
64967;BME280;51710;38.732;-121.358;2023-01-23T02:50:34;101591.41;;;10.57;49.55
64967;BME280;51710;38.732;-121.358;2023-01-23T02:53:00;101592.53;;;10.55;49.57
64967;BME280;51710;38.732;-121.358;2023-01-23T02:55:27;101594.47;;;10.53;50.05
64967;BME280;51710;38.732;-121.358;2023-01-23T02:57:58;101589.69;;;10.47;49.97
64967;BME280;51710;38.732;-121.358;2023-01-23T03:00:46;101587.28;;;10.44;49.88
64967;BME280;51710;38.732;-121.358;2023-01-23T03:03:13;101587.69;;;10.39;49.88
64967;BME280;51710;38.732;-121.358;2023-01-23T03:05:40;101597.66;;;10.37;50.22
64967;BME280;51710;38.732;-121.358;2023-01-23T03:08:07;101587.53;;;10.31;50.72
64967;BME280;51710;38.732;-121.358;2023-01-23T03:10:33;101587.94;;;10.27;50.71
64967;BME280;51710;38.732;-121.358;2023-01-23T03:12:59;101589.31;;;10.21;50.97
64967;BME280;51710;38.732;-121.358;2023-01-23T03:15:33;101582.56;;;10.17;50.67
64967;BME280;51710;38.732;-121.358;2023-01-23T03:18:03;101588.72;;;10.17;51.02
64967;BME280;51710;38.732;-121.358;2023-01-23T03:20:37;101591.09;;;10.11;51.61
64967;BME280;51710;38.732;-121.358;2023-01-23T03:23:04;101594.94;;;10.07;51.66
64967;BME280;51710;38.732;-121.358;2023-01-23T03:25:30;101594.38;;;10.03;50.92
64967;BME280;51710;38.732;-121.358;2023-01-23T03:27:57;101588.91;;;10.05;51.02
64967;BME280;51710;38.732;-121.358;2023-01-23T03:30:23;101584.81;;;10.01;51.80
64967;BME280;51710;38.732;-121.358;2023-01-23T03:32:50;101590.09;;;9.91;51.85
64967;BME280;51710;38.732;-121.358;2023-01-23T03:35:18;101587.38;;;9.82;52.60
64967;BME280;51710;38.732;-121.358;2023-01-23T03:37:48;101582.59;;;9.76;51.87
64967;BME280;51710;38.732;-121.358;2023-01-23T03:40:20;101586.75;;;9.69;52.01
64967;BME280;51710;38.732;-121.358;2023-01-23T03:43:05;101584.47;;;9.64;52.28
64967;BME280;51710;38.732;-121.358;2023-01-23T03:45:31;101587.94;;;9.55;51.99
64967;BME280;51710;38.732;-121.358;2023-01-23T03:47:58;101586.63;;;9.50;51.65
64967;BME280;51710;38.732;-121.358;2023-01-23T03:50:24;101588.28;;;9.51;50.46
64967;BME280;51710;38.732;-121.358;2023-01-23T03:52:51;101582.97;;;9.51;49.45
64967;BME280;51710;38.732;-121.358;2023-01-23T03:55:17;101567.75;;;9.53;48.58
64967;BME280;51710;38.732;-121.358;2023-01-23T03:57:43;101585.28;;;9.55;47.68
64967;BME280;51710;38.732;-121.358;2023-01-23T04:00:10;101575.59;;;9.54;47.87
64967;BME280;51710;38.732;-121.358;2023-01-23T04:02:38;101577.41;;;9.54;47.69
64967;BME280;51710;38.732;-121.358;2023-01-23T04:05:05;101586.34;;;9.53;46.94
64967;BME280;51710;38.732;-121.358;2023-01-23T04:07:31;101579.38;;;9.52;47.17
64967;BME280;51710;38.732;-121.358;2023-01-23T04:09:57;101563.41;;;9.52;47.22
64967;BME280;51710;38.732;-121.358;2023-01-23T04:12:23;101558.91;;;9.52;46.30
64967;BME280;51710;38.732;-121.358;2023-01-23T04:14:50;101558.78;;;9.54;46.45
64967;BME280;51710;38.732;-121.358;2023-01-23T04:17:16;101560.34;;;9.56;46.06
64967;BME280;51710;38.732;-121.358;2023-01-23T04:19:43;101556.84;;;9.56;46.05
64967;BME280;51710;38.732;-121.358;2023-01-23T04:22:09;101553.94;;;9.59;45.81
64967;BME280;51710;38.732;-121.358;2023-01-23T04:24:36;101544.97;;;9.60;45.72
64967;BME280;51710;38.732;-121.358;2023-01-23T04:27:02;101542.19;;;9.61;45.42
64967;BME280;51710;38.732;-121.358;2023-01-23T04:29:28;101531.69;;;9.60;45.99
64967;BME280;51710;38.732;-121.358;2023-01-23T04:31:55;101540.53;;;9.60;45.43
64967;BME280;51710;38.732;-121.358;2023-01-23T04:34:22;101527.94;;;9.62;45.04
64967;BME280;51710;38.732;-121.358;2023-01-23T04:36:48;101535.25;;;9.70;44.71
64967;BME280;51710;38.732;-121.358;2023-01-23T04:39:15;101516.81;;;9.78;44.30
64967;BME280;51710;38.732;-121.358;2023-01-23T04:41:41;101522.31;;;9.86;43.90
64967;BME280;51710;38.732;-121.358;2023-01-23T04:44:07;101530.88;;;9.89;43.82
64967;BME280;51710;38.732;-121.358;2023-01-23T04:46:46;101525.41;;;9.91;43.47
64967;BME280;51710;38.732;-121.358;2023-01-23T04:49:15;101534.25;;;9.91;43.51
64967;BME280;51710;38.732;-121.358;2023-01-23T04:51:41;101527.50;;;9.87;43.92
64967;BME280;51710;38.732;-121.358;2023-01-23T04:54:09;101535.75;;;9.84;44.04
64967;BME280;51710;38.732;-121.358;2023-01-23T04:56:36;101535.16;;;9.81;43.89
64967;BME280;51710;38.732;-121.358;2023-01-23T04:59:02;101539.50;;;9.82;43.73
64967;BME280;51710;38.732;-121.358;2023-01-23T05:01:28;101537.28;;;9.87;42.96
64967;BME280;51710;38.732;-121.358;2023-01-23T05:03:55;101538.72;;;9.91;42.96
64967;BME280;51710;38.732;-121.358;2023-01-23T05:06:22;101554.16;;;9.97;43.03
64967;BME280;51710;38.732;-121.358;2023-01-23T05:08:48;101551.09;;;10.01;42.94
64967;BME280;51710;38.732;-121.358;2023-01-23T05:11:14;101551.38;;;10.08;42.17
64967;BME280;51710;38.732;-121.358;2023-01-23T05:13:41;101556.97;;;10.05;43.01
64967;BME280;51710;38.732;-121.358;2023-01-23T05:16:07;101565.97;;;10.04;42.88
64967;BME280;51710;38.732;-121.358;2023-01-23T05:18:34;101570.44;;;10.03;43.13
64967;BME280;51710;38.732;-121.358;2023-01-23T05:21:00;101560.34;;;10.07;42.54
64967;BME280;51710;38.732;-121.358;2023-01-23T05:23:26;101556.97;;;10.05;43.62
64967;BME280;51710;38.732;-121.358;2023-01-23T05:25:52;101558.50;;;9.98;43.34
64967;BME280;51710;38.732;-121.358;2023-01-23T05:28:19;101561.16;;;9.98;43.22
64967;BME280;51710;38.732;-121.358;2023-01-23T05:30:45;101568.41;;;9.96;43.36
64967;BME280;51710;38.732;-121.358;2023-01-23T05:33:11;101564.66;;;9.98;43.06
64967;BME280;51710;38.732;-121.358;2023-01-23T05:35:38;101562.81;;;9.99;43.21
64967;BME280;51710;38.732;-121.358;2023-01-23T05:38:05;101563.53;;;10.01;43.53
64967;BME280;51710;38.732;-121.358;2023-01-23T05:40:31;101568.84;;;10.01;43.14
64967;BME280;51710;38.732;-121.358;2023-01-23T05:43:01;101567.06;;;10.01;43.28
64967;BME280;51710;38.732;-121.358;2023-01-23T05:45:27;101572.91;;;9.95;43.68
64967;BME280;51710;38.732;-121.358;2023-01-23T05:47:53;101567.03;;;9.92;43.66
64967;BME280;51710;38.732;-121.358;2023-01-23T05:50:20;101576.38;;;9.86;43.65
64967;BME280;51710;38.732;-121.358;2023-01-23T05:52:50;101577.88;;;9.79;44.13
64967;BME280;51710;38.732;-121.358;2023-01-23T05:55:16;101571.50;;;9.71;44.22
64967;BME280;51710;38.732;-121.358;2023-01-23T05:57:42;101575.81;;;9.62;44.82
64967;BME280;51710;38.732;-121.358;2023-01-23T06:00:12;101574.94;;;9.62;44.51
64967;BME280;51710;38.732;-121.358;2023-01-23T06:02:39;101567.94;;;9.61;44.33
64967;BME280;51710;38.732;-121.358;2023-01-23T06:05:05;101566.53;;;9.57;44.36
64967;BME280;51710;38.732;-121.358;2023-01-23T06:07:32;101573.91;;;9.53;44.82
64967;BME280;51710;38.732;-121.358;2023-01-23T06:09:58;101573.47;;;9.48;44.98
64967;BME280;51710;38.732;-121.358;2023-01-23T06:12:24;101581.81;;;9.44;45.17
64967;BME280;51710;38.732;-121.358;2023-01-23T06:14:51;101578.69;;;9.39;45.55
64967;BME280;51710;38.732;-121.358;2023-01-23T06:17:17;101585.22;;;9.35;45.18
64967;BME280;51710;38.732;-121.358;2023-01-23T06:19:44;101566.16;;;9.30;45.38
64967;BME280;51710;38.732;-121.358;2023-01-23T06:22:10;101568.25;;;9.26;44.91
64967;BME280;51710;38.732;-121.358;2023-01-23T06:24:37;101573.56;;;9.26;45.27
64967;BME280;51710;38.732;-121.358;2023-01-23T06:27:04;101572.00;;;9.24;45.38
64967;BME280;51710;38.732;-121.358;2023-01-23T06:29:34;101575.84;;;9.31;44.89
64967;BME280;51710;38.732;-121.358;2023-01-23T06:32:01;101568.59;;;9.33;45.14
64967;BME280;51710;38.732;-121.358;2023-01-23T06:34:28;101573.78;;;9.34;44.52
64967;BME280;51710;38.732;-121.358;2023-01-23T06:36:54;101571.25;;;9.33;45.43
64967;BME280;51710;38.732;-121.358;2023-01-23T06:39:21;101569.81;;;9.29;45.37
64967;BME280;51710;38.732;-121.358;2023-01-23T06:41:47;101578.06;;;9.26;45.42
64967;BME280;51710;38.732;-121.358;2023-01-23T06:44:13;101565.13;;;9.21;45.78
64967;BME280;51710;38.732;-121.358;2023-01-23T06:46:39;101570.84;;;9.17;46.07
64967;BME280;51710;38.732;-121.358;2023-01-23T06:49:06;101569.00;;;9.17;45.09
64967;BME280;51710;38.732;-121.358;2023-01-23T06:51:32;101563.81;;;9.16;45.50
64967;BME280;51710;38.732;-121.358;2023-01-23T06:53:59;101570.72;;;9.18;45.68
64967;BME280;51710;38.732;-121.358;2023-01-23T06:56:25;101575.75;;;9.21;45.08
64967;BME280;51710;38.732;-121.358;2023-01-23T06:58:51;101570.06;;;9.26;45.20
64967;BME280;51710;38.732;-121.358;2023-01-23T07:01:18;101570.28;;;9.34;44.59
64967;BME280;51710;38.732;-121.358;2023-01-23T07:03:44;101583.44;;;9.35;44.69
64967;BME280;51710;38.732;-121.358;2023-01-23T07:06:12;101588.34;;;9.40;44.24
64967;BME280;51710;38.732;-121.358;2023-01-23T07:08:39;101591.59;;;9.43;44.56
64967;BME280;51710;38.732;-121.358;2023-01-23T07:11:06;101590.78;;;9.43;44.39
64967;BME280;51710;38.732;-121.358;2023-01-23T07:13:33;101582.78;;;9.43;43.79
64967;BME280;51710;38.732;-121.358;2023-01-23T07:15:59;101587.41;;;9.41;44.40
64967;BME280;51710;38.732;-121.358;2023-01-23T07:18:25;101592.00;;;9.39;44.32
64967;BME280;51710;38.732;-121.358;2023-01-23T07:20:53;101609.16;;;9.35;44.82
64967;BME280;51710;38.732;-121.358;2023-01-23T07:23:20;101603.50;;;9.28;45.29
64967;BME280;51710;38.732;-121.358;2023-01-23T07:25:46;101610.16;;;9.23;45.78
64967;BME280;51710;38.732;-121.358;2023-01-23T07:28:13;101605.59;;;9.13;46.45
64967;BME280;51710;38.732;-121.358;2023-01-23T07:30:39;101608.31;;;9.02;47.04
64967;BME280;51710;38.732;-121.358;2023-01-23T07:33:06;101619.44;;;8.96;47.59
64967;BME280;51710;38.732;-121.358;2023-01-23T07:35:32;101630.56;;;8.90;47.42
64967;BME280;51710;38.732;-121.358;2023-01-23T07:37:58;101629.13;;;8.86;47.74
64967;BME280;51710;38.732;-121.358;2023-01-23T07:40:24;101626.72;;;8.83;47.67
64967;BME280;51710;38.732;-121.358;2023-01-23T07:42:51;101627.94;;;8.79;47.81
64967;BME280;51710;38.732;-121.358;2023-01-23T07:45:17;101624.28;;;8.80;48.26
64967;BME280;51710;38.732;-121.358;2023-01-23T07:47:43;101617.81;;;8.73;48.53
64967;BME280;51710;38.732;-121.358;2023-01-23T07:50:11;101618.03;;;8.70;48.35
64967;BME280;51710;38.732;-121.358;2023-01-23T07:52:38;101608.66;;;8.66;48.28
64967;BME280;51710;38.732;-121.358;2023-01-23T07:55:05;101600.31;;;8.60;48.25
64967;BME280;51710;38.732;-121.358;2023-01-23T07:57:31;101592.47;;;8.58;48.08
64967;BME280;51710;38.732;-121.358;2023-01-23T07:59:58;101599.72;;;8.56;47.72
64967;BME280;51710;38.732;-121.358;2023-01-23T08:02:25;101599.97;;;8.53;48.44
64967;BME280;51710;38.732;-121.358;2023-01-23T08:04:51;101600.34;;;8.49;48.16
64967;BME280;51710;38.732;-121.358;2023-01-23T08:07:17;101598.03;;;8.44;48.43
64967;BME280;51710;38.732;-121.358;2023-01-23T08:09:44;101585.88;;;8.42;48.76
64967;BME280;51710;38.732;-121.358;2023-01-23T08:12:11;101592.25;;;8.39;48.78
64967;BME280;51710;38.732;-121.358;2023-01-23T08:14:37;101590.13;;;8.33;48.69
64967;BME280;51710;38.732;-121.358;2023-01-23T08:17:05;101590.34;;;8.30;48.74
64967;BME280;51710;38.732;-121.358;2023-01-23T08:19:31;101593.25;;;8.27;49.19
64967;BME280;51710;38.732;-121.358;2023-01-23T08:21:58;101588.19;;;8.24;49.40
64967;BME280;51710;38.732;-121.358;2023-01-23T08:24:24;101595.72;;;8.18;49.93
64967;BME280;51710;38.732;-121.358;2023-01-23T08:26:50;101598.88;;;8.12;50.39
64967;BME280;51710;38.732;-121.358;2023-01-23T08:29:16;101596.00;;;8.04;50.71
64967;BME280;51710;38.732;-121.358;2023-01-23T08:31:43;101597.31;;;7.98;50.90
64967;BME280;51710;38.732;-121.358;2023-01-23T08:34:09;101588.88;;;7.93;51.19
64967;BME280;51710;38.732;-121.358;2023-01-23T08:36:35;101586.78;;;7.85;51.57
64967;BME280;51710;38.732;-121.358;2023-01-23T08:39:02;101582.56;;;7.83;51.70
64967;BME280;51710;38.732;-121.358;2023-01-23T08:41:29;101588.34;;;7.77;51.59
64967;BME280;51710;38.732;-121.358;2023-01-23T08:43:55;101590.53;;;7.72;51.84
64967;BME280;51710;38.732;-121.358;2023-01-23T08:46:27;101588.81;;;7.71;52.01
64967;BME280;51710;38.732;-121.358;2023-01-23T08:48:54;101583.03;;;7.66;52.48
64967;BME280;51710;38.732;-121.358;2023-01-23T08:51:20;101595.91;;;7.59;52.36
64967;BME280;51710;38.732;-121.358;2023-01-23T08:53:46;101593.69;;;7.53;52.79
64967;BME280;51710;38.732;-121.358;2023-01-23T08:56:18;101597.44;;;7.51;53.15
64967;BME280;51710;38.732;-121.358;2023-01-23T08:58:46;101590.69;;;7.47;53.08
64967;BME280;51710;38.732;-121.358;2023-01-23T09:01:19;101596.97;;;7.46;53.28
64967;BME280;51710;38.732;-121.358;2023-01-23T09:03:46;101590.91;;;7.44;53.39
64967;BME280;51710;38.732;-121.358;2023-01-23T09:06:14;101596.22;;;7.44;52.82
64967;BME280;51710;38.732;-121.358;2023-01-23T09:08:41;101596.22;;;7.44;53.02
64967;BME280;51710;38.732;-121.358;2023-01-23T09:11:09;101601.03;;;7.50;52.77
64967;BME280;51710;38.732;-121.358;2023-01-23T09:13:36;101610.56;;;7.52;52.56
64967;BME280;51710;38.732;-121.358;2023-01-23T09:16:03;101598.91;;;7.55;52.29
64967;BME280;51710;38.732;-121.358;2023-01-23T09:18:30;101595.53;;;7.53;52.96
64967;BME280;51710;38.732;-121.358;2023-01-23T09:20:56;101591.66;;;7.57;52.56
64967;BME280;51710;38.732;-121.358;2023-01-23T09:23:23;101596.75;;;7.60;52.64
64967;BME280;51710;38.732;-121.358;2023-01-23T09:25:49;101588.19;;;7.56;52.69
64967;BME280;51710;38.732;-121.358;2023-01-23T09:28:15;101597.22;;;7.54;52.42
64967;BME280;51710;38.732;-121.358;2023-01-23T09:30:42;101596.59;;;7.50;52.88
64967;BME280;51710;38.732;-121.358;2023-01-23T09:33:08;101607.56;;;7.46;52.73
64967;BME280;51710;38.732;-121.358;2023-01-23T09:35:34;101606.09;;;7.42;53.04
64967;BME280;51710;38.732;-121.358;2023-01-23T09:38:03;101608.00;;;7.40;52.91
64967;BME280;51710;38.732;-121.358;2023-01-23T09:40:37;101604.97;;;7.33;53.27
64967;BME280;51710;38.732;-121.358;2023-01-23T09:46:21;101610.72;;;7.27;53.52
64967;BME280;51710;38.732;-121.358;2023-01-23T09:49:24;101604.81;;;7.24;53.94
64967;BME280;51710;38.732;-121.358;2023-01-23T09:52:04;101616.59;;;7.20;53.57
64967;BME280;51710;38.732;-121.358;2023-01-23T09:54:52;101615.75;;;7.19;53.28
64967;BME280;51710;38.732;-121.358;2023-01-23T09:57:24;101614.16;;;7.17;53.80
64967;BME280;51710;38.732;-121.358;2023-01-23T10:00:04;101618.00;;;7.13;53.73
64967;BME280;51710;38.732;-121.358;2023-01-23T10:02:31;101627.00;;;7.10;54.18
64967;BME280;51710;38.732;-121.358;2023-01-23T10:04:59;101623.75;;;7.07;54.25
64967;BME280;51710;38.732;-121.358;2023-01-23T10:27:10;101596.06;;;6.87;54.72
64967;BME280;51710;38.732;-121.358;2023-01-23T10:29:44;101603.06;;;6.88;54.42
64967;BME280;51710;38.732;-121.358;2023-01-23T10:32:29;101598.84;;;6.85;54.78
64967;BME280;51710;38.732;-121.358;2023-01-23T10:40:30;101586.81;;;6.81;55.50
64967;BME280;51710;38.732;-121.358;2023-01-23T10:43:19;101592.31;;;6.78;55.56
64967;BME280;51710;38.732;-121.358;2023-01-23T10:45:47;101593.78;;;6.82;55.30
64967;BME280;51710;38.732;-121.358;2023-01-23T10:48:44;101596.78;;;6.78;55.67
64967;BME280;51710;38.732;-121.358;2023-01-23T10:54:24;101591.00;;;6.84;55.17
64967;BME280;51710;38.732;-121.358;2023-01-23T11:02:38;101589.97;;;6.87;54.55
64967;BME280;51710;38.732;-121.358;2023-01-23T11:05:38;101586.34;;;6.88;54.82
64967;BME280;51710;38.732;-121.358;2023-01-23T11:08:32;101589.22;;;6.84;54.62
64967;BME280;51710;38.732;-121.358;2023-01-23T11:11:17;101591.88;;;6.84;54.95
64967;BME280;51710;38.732;-121.358;2023-01-23T11:13:46;101582.84;;;6.87;54.64
64967;BME280;51710;38.732;-121.358;2023-01-23T11:16:22;101590.47;;;6.92;54.11
64967;BME280;51710;38.732;-121.358;2023-01-23T11:18:54;101575.09;;;6.97;54.43
64967;BME280;51710;38.732;-121.358;2023-01-23T11:21:26;101573.16;;;6.99;53.91
64967;BME280;51710;38.732;-121.358;2023-01-23T11:24:20;101572.31;;;6.98;54.02
64967;BME280;51710;38.732;-121.358;2023-01-23T11:26:47;101570.84;;;6.94;54.02
64967;BME280;51710;38.732;-121.358;2023-01-23T11:29:24;101568.56;;;6.90;54.50
64967;BME280;51710;38.732;-121.358;2023-01-23T11:32:12;101563.69;;;6.83;54.66
64967;BME280;51710;38.732;-121.358;2023-01-23T11:34:54;101569.84;;;6.84;54.16
64967;BME280;51710;38.732;-121.358;2023-01-23T11:37:33;101579.81;;;6.80;54.42
64967;BME280;51710;38.732;-121.358;2023-01-23T11:40:12;101567.31;;;6.82;54.17
64967;BME280;51710;38.732;-121.358;2023-01-23T11:42:41;101565.78;;;6.91;53.96
64967;BME280;51710;38.732;-121.358;2023-01-23T11:46:00;101568.50;;;7.02;53.32
64967;BME280;51710;38.732;-121.358;2023-01-23T11:48:44;101563.84;;;7.17;52.96
64967;BME280;51710;38.732;-121.358;2023-01-23T11:51:42;101566.16;;;7.21;52.13
64967;BME280;51710;38.732;-121.358;2023-01-23T12:00:20;101573.94;;;7.12;53.13
64967;BME280;51710;38.732;-121.358;2023-01-23T12:13:55;101564.38;;;6.98;53.71
64967;BME280;51710;38.732;-121.358;2023-01-23T12:16:51;101567.63;;;7.02;53.38
64967;BME280;51710;38.732;-121.358;2023-01-23T12:22:14;101576.56;;;7.01;53.95
64967;BME280;51710;38.732;-121.358;2023-01-23T12:25:09;101570.41;;;7.00;53.65
64967;BME280;51710;38.732;-121.358;2023-01-23T12:27:45;101573.06;;;7.00;53.96
64967;BME280;51710;38.732;-121.358;2023-01-23T12:39:00;101568.81;;;6.98;53.64
64967;BME280;51710;38.732;-121.358;2023-01-23T12:41:40;101563.53;;;6.98;53.43
64967;BME280;51710;38.732;-121.358;2023-01-23T12:44:25;101569.78;;;6.97;54.21
64967;BME280;51710;38.732;-121.358;2023-01-23T12:49:37;101568.09;;;6.96;53.92
64967;BME280;51710;38.732;-121.358;2023-01-23T12:52:56;101568.00;;;6.97;53.45
64967;BME280;51710;38.732;-121.358;2023-01-23T12:55:20;101569.56;;;7.00;53.60
64967;BME280;51710;38.732;-121.358;2023-01-23T12:57:47;101570.47;;;7.11;52.27
64967;BME280;51710;38.732;-121.358;2023-01-23T13:00:37;101570.56;;;7.10;52.86
64967;BME280;51710;38.732;-121.358;2023-01-23T13:11:23;101559.69;;;7.02;52.79
64967;BME280;51710;38.732;-121.358;2023-01-23T13:16:58;101566.41;;;6.95;52.29
64967;BME280;51710;38.732;-121.358;2023-01-23T13:19:39;101559.88;;;6.88;52.87
64967;BME280;51710;38.732;-121.358;2023-01-23T13:22:30;101561.78;;;6.85;52.46
64967;BME280;51710;38.732;-121.358;2023-01-23T13:25:13;101567.44;;;6.81;52.79
64967;BME280;51710;38.732;-121.358;2023-01-23T13:27:49;101579.81;;;6.80;53.47
64967;BME280;51710;38.732;-121.358;2023-01-23T13:43:51;101591.41;;;6.67;53.80
64967;BME280;51710;38.732;-121.358;2023-01-23T13:49:44;101584.47;;;6.53;53.92
64967;BME280;51710;38.732;-121.358;2023-01-23T13:52:24;101586.47;;;6.50;54.51
64967;BME280;51710;38.732;-121.358;2023-01-23T13:55:29;101603.28;;;6.49;54.71
64967;BME280;51710;38.732;-121.358;2023-01-23T13:58:26;101609.56;;;6.48;54.72
64967;BME280;51710;38.732;-121.358;2023-01-23T14:03:50;101615.84;;;6.34;55.85
64967;BME280;51710;38.732;-121.358;2023-01-23T14:06:38;101626.09;;;6.26;55.76
64967;BME280;51710;38.732;-121.358;2023-01-23T14:09:34;101626.31;;;6.23;56.64
64967;BME280;51710;38.732;-121.358;2023-01-23T14:12:03;101634.56;;;6.19;56.26
64967;BME280;51710;38.732;-121.358;2023-01-23T14:14:34;101632.63;;;6.21;56.39
64967;BME280;51710;38.732;-121.358;2023-01-23T14:17:20;101628.44;;;6.18;56.41
64967;BME280;51710;38.732;-121.358;2023-01-23T14:20:15;101630.22;;;6.18;56.30
64967;BME280;51710;38.732;-121.358;2023-01-23T14:22:43;101630.09;;;6.19;55.97
64967;BME280;51710;38.732;-121.358;2023-01-23T14:25:16;101629.47;;;6.16;56.17
64967;BME280;51710;38.732;-121.358;2023-01-23T14:27:43;101629.69;;;6.13;56.86
64967;BME280;51710;38.732;-121.358;2023-01-23T14:32:43;101630.09;;;6.07;56.68
64967;BME280;51710;38.732;-121.358;2023-01-23T14:35:30;101624.75;;;6.08;56.48